Time;durP1;ratioP1;P1;durP2;ratioP2;P2;SDS_P1;SDS_P2;PMS_P1;PMS_P2;Temp;Humidity;BMP_temperature;BMP_pressure;BME280_temperature;BME280_humidity;BME280_pressure;Samples;Min_cycle;Max_cycle;Signal;HPM_P1;HPM_P2
2022/12/29 00:02:14;;;;;;;3.77;2.60;;;9.90;72.60;;;;;;5027346;28;20441;-76
2022/12/29 00:04:40;;;;;;;5.57;2.60;;;9.90;72.70;;;;;;5025735;28;20198;-76
2022/12/29 00:07:06;;;;;;;4.70;2.70;;;10.00;72.40;;;;;;5023828;28;20420;-77
2022/12/29 00:09:33;;;;;;;4.70;2.87;;;10.00;72.40;;;;;;5032936;28;20582;-77
2022/12/29 00:11:59;;;;;;;4.60;2.50;;;10.00;72.40;;;;;;5029331;28;20420;-77
2022/12/29 00:17:11;;;;;;;3.83;2.70;;;10.00;72.40;;;;;;5029295;28;20458;-77
2022/12/29 00:36:18;;;;;;;5.07;3.07;;;10.30;72.10;;;;;;5028266;28;20990;-76
2022/12/29 00:44:17;;;;;;;4.73;3.00;;;10.40;71.80;;;;;;5034962;28;20984;-75
2022/12/29 00:46:43;;;;;;;5.00;2.67;;;10.40;71.80;;;;;;5038338;28;20480;-77
2022/12/29 00:49:30;;;;;;;3.73;2.40;;;10.40;71.80;;;;;;5031902;28;20285;-76
2022/12/29 00:52:07;;;;;;;3.80;2.30;;;10.30;71.80;;;;;;5027218;28;20432;-76
2022/12/29 00:54:37;;;;;;;5.60;2.83;;;10.40;71.70;;;;;;5045073;28;20454;-76
2022/12/29 00:57:05;;;;;;;5.37;2.30;;;10.40;71.80;;;;;;5033817;28;20440;-75
2022/12/29 00:59:30;;;;;;;4.60;3.10;;;10.40;72.00;;;;;;5035681;28;20467;-76
2022/12/29 01:01:57;;;;;;;2.40;1.70;;;10.40;72.00;;;;;;5045724;28;20446;-76
2022/12/29 01:04:25;;;;;;;5.23;2.10;;;10.40;71.80;;;;;;5045227;28;20201;-76
2022/12/29 01:06:51;;;;;;;3.17;2.17;;;10.60;71.30;;;;;;5040128;28;20401;-77
2022/12/29 01:12:06;;;;;;;4.10;2.23;;;11.10;70.10;;;;;;5043701;28;20412;-77
2022/12/29 01:14:32;;;;;;;9.37;2.00;;;11.20;69.70;;;;;;5042139;28;20969;-76
2022/12/29 01:16:58;;;;;;;3.67;1.90;;;11.20;69.50;;;;;;5034671;28;20431;-76
2022/12/29 01:19:24;;;;;;;4.37;2.40;;;11.30;69.40;;;;;;5033341;28;20460;-75
2022/12/29 01:21:50;;;;;;;3.17;2.23;;;11.40;69.20;;;;;;5035087;28;20268;-77
2022/12/29 01:24:17;;;;;;;4.70;2.20;;;11.50;69.10;;;;;;5046130;28;20502;-78
2022/12/29 01:26:43;;;;;;;7.00;2.30;;;11.50;68.80;;;;;;5046836;28;20178;-75
2022/12/29 01:29:09;;;;;;;3.00;1.70;;;11.50;68.60;;;;;;5046978;28;20458;-77
2022/12/29 01:31:35;;;;;;;4.90;1.77;;;11.60;68.80;;;;;;5051733;28;20430;-75
2022/12/29 01:34:00;;;;;;;3.90;2.27;;;11.60;68.60;;;;;;5042226;28;20216;-76
2022/12/29 01:36:26;;;;;;;4.67;2.03;;;11.60;68.60;;;;;;5033220;28;20181;-75
2022/12/29 01:38:52;;;;;;;4.13;2.10;;;11.60;68.60;;;;;;5035766;28;20207;-76
2022/12/29 01:41:17;;;;;;;6.87;2.03;;;11.50;68.80;;;;;;5027139;28;20277;-77
2022/12/29 01:43:50;;;;;;;3.93;2.10;;;11.50;68.80;;;;;;5035785;28;20201;-76
2022/12/29 01:46:23;;;;;;;2.70;1.90;;;11.60;68.60;;;;;;5031001;28;20190;-76
2022/12/29 01:48:53;;;;;;;17.13;2.83;;;11.50;68.80;;;;;;5028614;28;20426;-77
2022/12/29 01:51:21;;;;;;;3.40;2.17;;;11.50;68.80;;;;;;5033155;28;20838;-76
2022/12/29 01:53:47;;;;;;;3.20;1.97;;;11.50;68.90;;;;;;5044652;28;20506;-76
2022/12/29 01:56:17;;;;;;;2.70;1.67;;;11.50;68.90;;;;;;5044527;28;20428;-76
2022/12/29 01:58:46;;;;;;;2.60;1.80;;;11.50;69.20;;;;;;5042737;28;20909;-76
2022/12/29 02:01:11;;;;;;;7.50;1.97;;;11.50;69.10;;;;;;5047574;28;20654;-76
2022/12/29 02:03:37;;;;;;;3.03;1.97;;;11.50;69.40;;;;;;5047033;28;20455;-76
2022/12/29 02:06:11;;;;;;;2.70;1.77;;;11.40;69.20;;;;;;5038949;28;20212;-75
2022/12/29 02:08:38;;;;;;;2.10;1.70;;;11.50;69.40;;;;;;5049275;28;20679;-76
2022/12/29 02:11:04;;;;;;;3.00;1.60;;;11.40;69.40;;;;;;5051318;28;20428;-77
2022/12/29 02:13:30;;;;;;;5.80;2.30;;;11.30;69.40;;;;;;5039760;28;20551;-76
2022/12/29 02:16:21;;;;;;;3.87;1.77;;;11.40;69.50;;;;;;5028644;28;20235;-77
2022/12/29 02:19:08;;;;;;;2.27;1.67;;;11.40;69.50;;;;;;5031954;28;20554;-77
2022/12/29 02:22:08;;;;;;;6.53;1.77;;;11.40;69.50;;;;;;5027359;28;20412;-76
2022/12/29 02:24:52;;;;;;;3.10;1.97;;;11.40;69.40;;;;;;5034556;28;20447;-77
2022/12/29 02:27:39;;;;;;;7.47;2.00;;;11.40;69.40;;;;;;5038892;28;20420;-77
2022/12/29 02:30:15;;;;;;;3.77;1.77;;;11.50;69.40;;;;;;5030113;28;20475;-77
2022/12/29 02:32:56;;;;;;;3.60;1.70;;;11.50;69.10;;;;;;5024793;28;20419;-78
2022/12/29 02:35:37;;;;;;;2.43;2.03;;;11.50;69.10;;;;;;5030583;28;20430;-76
2022/12/29 02:38:18;;;;;;;5.37;1.90;;;11.50;69.20;;;;;;5027874;28;20459;-76
2022/12/29 02:40:48;;;;;;;5.23;2.50;;;11.50;68.80;;;;;;5026383;28;21117;-77
2022/12/29 02:43:47;;;;;;;2.20;1.53;;;11.60;68.80;;;;;;5028472;28;20452;-76
2022/12/29 02:46:37;;;;;;;3.20;1.63;;;11.60;68.60;;;;;;5034539;28;20840;-78
2022/12/29 02:49:18;;;;;;;3.50;1.70;;;11.50;68.90;;;;;;5031112;28;20428;-76
2022/12/29 02:51:58;;;;;;;3.03;2.00;;;11.60;68.80;;;;;;5026980;28;20420;-76
2022/12/29 02:54:42;;;;;;;5.47;1.90;;;11.60;68.60;;;;;;5033841;28;20473;-77
2022/12/29 02:57:14;;;;;;;4.33;2.70;;;11.70;68.60;;;;;;5033018;28;21001;-76
2022/12/29 02:59:41;;;;;;;2.47;1.97;;;11.70;68.60;;;;;;5018111;28;20482;-77
2022/12/29 03:02:43;;;;;;;4.13;1.90;;;11.70;68.50;;;;;;5030888;28;20459;-77
2022/12/29 03:05:18;;;;;;;4.20;1.70;;;11.80;68.60;;;;;;5022054;28;20423;-78
2022/12/29 03:07:53;;;;;;;3.30;2.00;;;11.70;68.60;;;;;;5027115;28;20427;-77
2022/12/29 03:10:30;;;;;;;3.00;2.07;;;11.70;68.60;;;;;;5032910;28;20426;-76
2022/12/29 03:16:16;;;;;;;3.83;1.73;;;11.70;69.10;;;;;;5026395;28;20434;-77
2022/12/29 03:19:14;;;;;;;2.37;1.50;;;11.70;69.10;;;;;;5022841;28;20541;-77
2022/12/29 03:24:35;;;;;;;6.80;1.80;;;11.70;68.90;;;;;;5002854;28;20899;-76
2022/12/29 03:27:04;;;;;;;3.83;1.77;;;11.80;68.80;;;;;;4989221;28;20928;-77
2022/12/29 03:29:35;;;;;;;3.27;2.20;;;11.80;68.80;;;;;;5005188;28;20440;-77
2022/12/29 03:32:02;;;;;;;2.03;1.60;;;11.80;68.60;;;;;;5004053;28;20916;-77
2022/12/29 03:34:29;;;;;;;3.80;2.07;;;11.90;68.50;;;;;;5009106;28;20464;-77
2022/12/29 03:37:06;;;;;;;2.53;1.30;;;11.90;68.50;;;;;;5002194;28;21006;-75
2022/12/29 03:39:32;;;;;;;2.70;1.80;;;12.00;68.50;;;;;;5002580;28;20473;-75
2022/12/29 03:42:02;;;;;;;2.37;1.70;;;12.00;68.50;;;;;;4992112;28;20429;-75
2022/12/29 03:44:37;;;;;;;3.47;1.60;;;12.00;68.50;;;;;;5008526;28;20260;-76
2022/12/29 03:47:04;;;;;;;2.87;1.70;;;12.00;68.60;;;;;;4999863;28;20428;-77
2022/12/29 03:49:29;;;;;;;5.47;1.30;;;12.00;68.50;;;;;;5015581;28;20530;-76
2022/12/29 03:51:55;;;;;;;4.30;1.70;;;12.10;68.50;;;;;;5011316;28;20456;-76
2022/12/29 03:54:21;;;;;;;2.83;1.90;;;12.10;68.60;;;;;;5012337;28;20528;-75
2022/12/29 03:56:46;;;;;;;3.33;1.63;;;12.20;68.60;;;;;;5006020;28;20259;-77
2022/12/29 03:59:12;;;;;;;2.30;1.30;;;12.20;68.50;;;;;;5029094;28;20529;-75
2022/12/29 04:01:38;;;;;;;5.03;1.70;;;12.20;68.60;;;;;;5039486;28;20214;-77
2022/12/29 04:04:03;;;;;;;4.30;2.10;;;12.20;68.60;;;;;;5034065;28;20201;-75
2022/12/29 04:06:29;;;;;;;2.43;1.60;;;12.30;68.60;;;;;;5030498;28;20283;-77
2022/12/29 04:08:55;;;;;;;3.30;1.97;;;12.20;68.80;;;;;;5032911;28;20727;-77
2022/12/29 04:11:21;;;;;;;3.83;2.03;;;12.20;68.60;;;;;;5030569;28;20227;-76
2022/12/29 04:13:47;;;;;;;3.40;1.83;;;12.20;68.60;;;;;;5034715;28;20263;-76
2022/12/29 04:16:12;;;;;;;3.30;1.80;;;12.20;68.60;;;;;;5031689;28;20450;-77
2022/12/29 04:18:38;;;;;;;4.27;1.70;;;12.10;69.10;;;;;;5024999;28;20208;-75
2022/12/29 04:21:04;;;;;;;4.90;2.13;;;12.10;69.40;;;;;;5032158;28;20201;-76
2022/12/29 04:23:32;;;;;;;2.50;1.80;;;12.10;69.50;;;;;;5030474;28;20216;-75
2022/12/29 04:25:58;;;;;;;3.20;1.53;;;12.10;69.70;;;;;;5029861;28;20424;-76
2022/12/29 04:28:24;;;;;;;3.70;1.83;;;12.10;69.70;;;;;;5032494;28;20430;-75
2022/12/29 04:30:50;;;;;;;4.57;1.60;;;12.10;69.80;;;;;;5035843;28;20628;-77
2022/12/29 04:33:15;;;;;;;2.40;1.70;;;12.10;69.80;;;;;;5027769;28;20857;-74
2022/12/29 04:35:42;;;;;;;3.40;2.07;;;12.00;69.90;;;;;;5035323;28;20463;-75
2022/12/29 04:38:09;;;;;;;5.13;1.47;;;12.00;70.10;;;;;;5034264;28;20233;-77
2022/12/29 04:40:34;;;;;;;6.00;1.73;;;12.00;70.20;;;;;;5020392;28;21584;-76
2022/12/29 04:43:00;;;;;;;2.33;1.80;;;12.00;70.40;;;;;;5025486;28;20470;-77
2022/12/29 04:45:26;;;;;;;3.43;1.50;;;12.00;70.50;;;;;;5031636;28;20193;-76
2022/12/29 04:47:51;;;;;;;3.40;1.80;;;12.00;70.50;;;;;;5029208;28;20239;-76
2022/12/29 04:50:17;;;;;;;2.07;1.90;;;12.00;70.70;;;;;;5033563;28;20204;-76
2022/12/29 04:52:42;;;;;;;2.90;1.80;;;12.00;70.70;;;;;;5028117;28;20275;-76
2022/12/29 04:55:08;;;;;;;3.20;2.00;;;12.10;70.80;;;;;;5028843;28;20280;-78
2022/12/29 04:57:34;;;;;;;1.73;1.60;;;12.10;70.80;;;;;;5030081;28;20205;-76
2022/12/29 05:00:00;;;;;;;3.07;1.90;;;12.10;70.80;;;;;;5030533;28;20524;-77
2022/12/29 05:02:25;;;;;;;4.60;2.10;;;12.10;71.00;;;;;;5033584;28;20217;-76
2022/12/29 05:04:51;;;;;;;5.50;2.10;;;12.00;71.00;;;;;;5024410;28;20209;-77
2022/12/29 05:07:16;;;;;;;3.40;1.60;;;12.00;71.10;;;;;;5027088;28;20555;-77
2022/12/29 05:09:42;;;;;;;2.30;1.73;;;12.00;71.10;;;;;;5031181;28;20590;-76
2022/12/29 05:12:07;;;;;;;2.93;1.47;;;12.10;71.00;;;;;;5031213;28;20185;-76
2022/12/29 05:14:33;;;;;;;4.00;1.90;;;12.10;71.00;;;;;;5029900;28;20274;-76
2022/12/29 05:16:59;;;;;;;4.60;1.80;;;12.10;71.00;;;;;;5029729;28;20192;-76
2022/12/29 05:19:24;;;;;;;5.17;2.33;;;12.10;71.00;;;;;;5030244;28;20209;-75
2022/12/29 05:21:50;;;;;;;4.40;2.43;;;12.20;71.00;;;;;;5027782;28;20251;-75
2022/12/29 05:24:15;;;;;;;4.23;2.13;;;12.10;71.00;;;;;;5030843;28;20319;-77
2022/12/29 05:26:41;;;;;;;6.30;2.50;;;12.10;71.00;;;;;;5025403;28;20182;-75
2022/12/29 05:29:07;;;;;;;3.13;1.60;;;12.10;71.00;;;;;;5033365;28;20280;-74
2022/12/29 05:31:35;;;;;;;4.07;2.10;;;12.10;71.10;;;;;;5033257;28;20456;-77
2022/12/29 05:34:01;;;;;;;7.60;1.97;;;12.00;71.10;;;;;;5028368;28;20213;-75
2022/12/29 05:36:26;;;;;;;5.47;2.30;;;12.10;71.10;;;;;;5034046;28;20477;-75
2022/12/29 05:38:52;;;;;;;3.10;1.70;;;12.00;71.10;;;;;;5032868;28;20653;-76
2022/12/29 05:41:17;;;;;;;3.33;1.80;;;12.00;71.30;;;;;;5039676;28;20189;-75
2022/12/29 05:43:43;;;;;;;4.40;2.30;;;12.00;71.30;;;;;;5031841;28;20412;-75
2022/12/29 05:46:09;;;;;;;2.50;1.77;;;12.00;71.40;;;;;;5036137;28;20193;-75
2022/12/29 05:48:34;;;;;;;3.40;2.13;;;12.00;71.30;;;;;;5036710;28;20193;-76
2022/12/29 05:51:00;;;;;;;4.03;2.17;;;12.00;71.30;;;;;;5034236;28;20200;-75
2022/12/29 05:53:25;;;;;;;3.43;1.80;;;12.00;71.30;;;;;;5037794;28;20227;-77
2022/12/29 05:55:51;;;;;;;5.47;1.90;;;12.00;71.10;;;;;;5034877;28;20189;-76
2022/12/29 05:58:17;;;;;;;5.83;2.17;;;12.10;71.00;;;;;;5030756;28;20240;-76
2022/12/29 06:00:43;;;;;;;2.80;1.80;;;12.10;71.00;;;;;;5025565;28;20272;-75
2022/12/29 06:03:09;;;;;;;2.10;1.60;;;12.20;70.70;;;;;;5027480;28;20479;-76
2022/12/29 06:05:34;;;;;;;3.60;1.97;;;12.20;70.70;;;;;;5032279;28;20903;-76
2022/12/29 06:08:00;;;;;;;2.03;1.63;;;12.20;70.70;;;;;;5036503;28;20177;-77
2022/12/29 06:10:25;;;;;;;3.47;1.73;;;12.20;70.50;;;;;;5036773;28;20272;-76
2022/12/29 06:12:51;;;;;;;2.67;1.63;;;12.20;70.50;;;;;;5034272;28;20581;-76
2022/12/29 06:15:17;;;;;;;2.50;1.90;;;12.20;70.40;;;;;;5022931;28;20196;-77
2022/12/29 06:17:43;;;;;;;4.43;2.20;;;12.20;70.20;;;;;;5029646;28;20217;-77
2022/12/29 06:20:10;;;;;;;2.87;1.53;;;12.20;70.20;;;;;;5027274;28;20455;-76
2022/12/29 06:22:36;;;;;;;6.13;2.07;;;12.20;70.20;;;;;;5029029;28;20599;-76
2022/12/29 06:25:01;;;;;;;2.33;1.60;;;12.20;70.20;;;;;;5026319;28;20858;-76
2022/12/29 06:27:27;;;;;;;2.97;2.17;;;12.20;70.20;;;;;;5028474;28;20432;-76
2022/12/29 06:29:53;;;;;;;4.30;2.13;;;12.10;70.40;;;;;;5029177;28;20185;-75
2022/12/29 06:32:19;;;;;;;2.83;1.83;;;12.10;70.50;;;;;;5029045;28;20806;-77
2022/12/29 06:34:44;;;;;;;2.90;1.97;;;12.10;70.40;;;;;;5027893;28;20559;-77
2022/12/29 06:37:11;;;;;;;5.20;1.70;;;12.10;70.10;;;;;;5028228;28;20215;-76
2022/12/29 06:39:36;;;;;;;5.20;2.07;;;12.00;69.90;;;;;;5026767;28;20205;-76
2022/12/29 06:42:02;;;;;;;3.43;1.70;;;12.00;69.90;;;;;;5023548;28;20458;-77
2022/12/29 06:44:28;;;;;;;5.33;1.97;;;12.00;70.10;;;;;;5023501;28;20304;-77
2022/12/29 06:46:54;;;;;;;2.53;1.90;;;12.00;69.90;;;;;;5027115;28;20422;-77
2022/12/29 06:49:19;;;;;;;4.43;1.80;;;12.00;69.80;;;;;;5025497;28;20207;-75
2022/12/29 06:51:45;;;;;;;3.50;1.70;;;11.90;69.80;;;;;;5026686;28;20228;-77
2022/12/29 06:54:10;;;;;;;2.90;2.03;;;11.90;69.70;;;;;;5023981;28;20209;-76
2022/12/29 06:56:36;;;;;;;6.73;2.20;;;11.90;69.70;;;;;;5025166;28;20209;-77
2022/12/29 06:59:02;;;;;;;5.57;2.00;;;11.80;69.70;;;;;;5024329;28;20253;-77
2022/12/29 07:01:27;;;;;;;2.00;1.67;;;11.80;69.70;;;;;;5026194;28;20691;-77
2022/12/29 07:03:53;;;;;;;3.43;1.83;;;11.80;69.50;;;;;;5017444;28;20201;-76
2022/12/29 07:06:18;;;;;;;3.20;1.73;;;11.80;69.70;;;;;;5025749;28;20181;-75
2022/12/29 07:08:44;;;;;;;4.80;1.90;;;11.80;69.70;;;;;;5028372;28;20185;-74
2022/12/29 07:11:10;;;;;;;5.90;1.70;;;11.80;69.50;;;;;;5025643;28;20184;-76
2022/12/29 07:13:36;;;;;;;3.37;1.73;;;11.80;69.70;;;;;;5027649;28;20948;-76
2022/12/29 07:16:06;;;;;;;4.47;1.90;;;11.80;69.70;;;;;;5025626;28;20435;-78
2022/12/29 07:18:31;;;;;;;3.20;2.27;;;11.80;69.70;;;;;;5022454;28;20299;-75
2022/12/29 07:20:57;;;;;;;3.40;1.90;;;11.80;69.70;;;;;;5031061;28;20684;-75
2022/12/29 07:23:23;;;;;;;2.30;2.03;;;11.80;69.70;;;;;;5027961;28;20205;-78
2022/12/29 07:25:48;;;;;;;4.33;2.13;;;11.70;69.90;;;;;;5023996;28;20265;-78
2022/12/29 07:28:14;;;;;;;3.63;1.80;;;11.70;70.10;;;;;;5030775;28;20432;-75
2022/12/29 07:30:40;;;;;;;4.43;1.93;;;11.70;70.20;;;;;;5032129;28;20188;-74
2022/12/29 07:33:05;;;;;;;2.93;2.00;;;11.70;70.20;;;;;;5029717;28;20731;-79
2022/12/29 07:35:31;;;;;;;3.20;1.97;;;11.60;70.20;;;;;;5033801;28;20185;-76
2022/12/29 07:37:56;;;;;;;4.13;1.73;;;11.60;70.20;;;;;;5026038;28;20244;-77
2022/12/29 07:40:22;;;;;;;3.63;2.10;;;11.60;70.40;;;;;;5028010;28;20217;-76
2022/12/29 07:42:47;;;;;;;5.00;1.80;;;11.60;70.40;;;;;;5029724;28;20185;-75
2022/12/29 07:45:13;;;;;;;4.27;2.03;;;11.60;70.40;;;;;;5034626;28;20714;-76
2022/12/29 07:47:38;;;;;;;1.93;1.63;;;11.70;70.40;;;;;;5033469;28;20253;-75
2022/12/29 07:50:05;;;;;;;3.83;1.77;;;11.70;70.20;;;;;;5033633;28;20280;-76
2022/12/29 07:52:30;;;;;;;2.67;1.90;;;11.80;70.10;;;;;;5030507;28;20213;-76
2022/12/29 07:54:56;;;;;;;3.70;1.70;;;11.80;70.10;;;;;;5024085;28;20513;-77
2022/12/29 07:57:22;;;;;;;2.40;1.80;;;11.90;69.90;;;;;;5030211;28;20201;-76
2022/12/29 07:59:47;;;;;;;2.93;1.93;;;12.00;69.80;;;;;;5026207;28;20228;-75
2022/12/29 08:02:13;;;;;;;3.23;1.57;;;12.00;69.80;;;;;;5033303;28;20642;-76
2022/12/29 08:04:38;;;;;;;3.77;2.13;;;12.10;69.90;;;;;;5028743;28;20228;-76
2022/12/29 08:07:04;;;;;;;3.83;2.03;;;12.10;70.10;;;;;;5031489;28;20204;-76
2022/12/29 08:09:30;;;;;;;5.80;2.07;;;12.00;69.90;;;;;;5034663;28;20192;-77
2022/12/29 08:11:55;;;;;;;3.20;1.53;;;12.00;69.90;;;;;;5031433;28;20674;-76
2022/12/29 08:14:21;;;;;;;2.80;1.77;;;12.00;70.10;;;;;;5032140;28;20266;-76
2022/12/29 08:16:46;;;;;;;7.23;1.97;;;12.10;69.90;;;;;;5033953;28;20276;-75
2022/12/29 08:19:13;;;;;;;4.63;2.20;;;12.10;70.10;;;;;;5037432;28;20216;-77
2022/12/29 08:21:38;;;;;;;4.20;2.10;;;12.10;70.10;;;;;;5034611;28;20188;-75
2022/12/29 08:24:04;;;;;;;4.90;2.40;;;12.10;69.90;;;;;;5031112;28;20456;-76
2022/12/29 08:26:30;;;;;;;6.73;2.60;;;12.10;69.90;;;;;;5030433;28;20199;-75
2022/12/29 08:28:56;;;;;;;4.30;1.70;;;12.20;69.90;;;;;;5031003;28;20432;-76
2022/12/29 08:31:23;;;;;;;2.73;1.63;;;12.20;70.10;;;;;;5033468;28;20221;-76
2022/12/29 08:33:48;;;;;;;4.83;1.73;;;12.20;70.10;;;;;;5028480;28;20213;-76
2022/12/29 08:36:14;;;;;;;3.40;2.17;;;12.20;69.90;;;;;;5028170;28;20436;-75
2022/12/29 08:38:39;;;;;;;2.87;2.07;;;12.20;69.90;;;;;;5033801;28;20216;-77
2022/12/29 08:41:05;;;;;;;2.93;1.77;;;12.30;69.90;;;;;;5015587;28;20244;-77
2022/12/29 08:43:31;;;;;;;2.50;2.00;;;12.30;69.90;;;;;;5024018;28;20209;-77
2022/12/29 08:45:58;;;;;;;4.40;2.13;;;12.20;69.90;;;;;;5024468;28;20206;-76
2022/12/29 08:48:25;;;;;;;3.17;2.00;;;12.30;69.90;;;;;;5030709;28;20193;-78
2022/12/29 08:50:50;;;;;;;5.73;2.60;;;12.20;70.10;;;;;;5032118;28;20926;-77
2022/12/29 08:53:17;;;;;;;2.83;2.00;;;12.20;69.90;;;;;;5028644;28;20471;-76
2022/12/29 08:55:46;;;;;;;2.80;1.93;;;12.30;69.90;;;;;;5032038;28;20562;-76
2022/12/29 08:58:14;;;;;;;4.13;1.90;;;12.30;69.90;;;;;;5030826;28;20567;-74
2022/12/29 09:00:41;;;;;;;2.40;1.90;;;12.30;69.80;;;;;;5031041;28;20520;-74
2022/12/29 09:03:06;;;;;;;3.00;1.73;;;12.40;69.80;;;;;;5026960;28;20455;-75
2022/12/29 09:05:32;;;;;;;3.10;1.80;;;12.40;69.80;;;;;;5031081;28;20559;-76
2022/12/29 09:07:58;;;;;;;3.90;2.20;;;12.40;69.80;;;;;;5029274;28;20213;-76
2022/12/29 09:10:23;;;;;;;3.30;1.73;;;12.40;69.90;;;;;;5029591;28;20189;-75
2022/12/29 09:12:49;;;;;;;3.33;1.80;;;12.50;69.50;;;;;;5027224;28;20672;-76
2022/12/29 09:15:15;;;;;;;3.13;1.87;;;12.60;69.50;;;;;;5029771;28;20268;-76
2022/12/29 09:17:46;;;;;;;4.60;2.17;;;12.60;69.20;;;;;;5021841;28;20193;-75
2022/12/29 09:20:14;;;;;;;4.00;1.63;;;12.70;69.20;;;;;;5025672;28;20819;-76
2022/12/29 09:23:01;;;;;;;3.00;1.70;;;12.70;68.90;;;;;;5040394;28;20437;-80
2022/12/29 09:25:27;;;;;;;2.00;1.60;;;12.80;68.80;;;;;;5029228;28;20799;-76
2022/12/29 09:27:53;;;;;;;3.23;1.90;;;12.90;68.50;;;;;;5024205;28;20417;-77
2022/12/29 09:30:20;;;;;;;3.40;1.97;;;12.90;68.30;;;;;;5028386;28;20189;-75
2022/12/29 09:32:46;;;;;;;2.70;1.90;;;12.90;68.30;;;;;;5021529;28;20444;-78
2022/12/29 09:35:13;;;;;;;4.37;2.03;;;13.00;68.20;;;;;;5028038;28;20428;-76
2022/12/29 09:37:38;;;;;;;6.47;2.10;;;13.00;68.00;;;;;;5019129;28;20942;-76
2022/12/29 09:40:05;;;;;;;2.83;1.90;;;13.00;68.00;;;;;;5021909;28;20413;-77
2022/12/29 09:42:50;;;;;;;5.40;2.20;;;13.10;67.90;;;;;;5020641;28;20644;-75
2022/12/29 09:45:32;;;;;;;3.20;1.77;;;13.10;67.90;;;;;;5029227;28;20451;-76
2022/12/29 09:47:58;;;;;;;6.47;3.30;;;13.10;67.90;;;;;;5027926;28;20439;-76
2022/12/29 09:50:30;;;;;;;2.70;1.73;;;13.20;67.70;;;;;;5026610;28;20807;-76
2022/12/29 09:53:12;;;;;;;4.80;2.00;;;13.20;67.60;;;;;;5024711;28;20200;-76
2022/12/29 09:55:59;;;;;;;4.07;2.00;;;13.20;67.90;;;;;;5026229;28;20416;-75
2022/12/29 09:58:58;;;;;;;3.60;2.40;;;13.30;67.50;;;;;;5028159;28;20471;-76
2022/12/29 10:01:27;;;;;;;3.50;2.30;;;13.40;67.20;;;;;;4993125;28;20453;-76
2022/12/29 10:03:56;;;;;;;4.30;2.00;;;13.40;67.50;;;;;;5001120;28;21132;-76
2022/12/29 10:06:25;;;;;;;3.60;1.80;;;13.40;67.60;;;;;;5007739;28;20428;-75
2022/12/29 10:09:32;;;;;;;2.33;1.63;;;13.40;67.70;;;;;;5010775;28;20443;-76
2022/12/29 10:12:16;;;;;;;3.23;2.03;;;13.40;67.90;;;;;;5009710;28;20804;-75
2022/12/29 10:14:51;;;;;;;3.83;1.80;;;13.40;67.90;;;;;;5008592;28;20464;-75
2022/12/29 10:17:42;;;;;;;5.80;2.50;;;13.40;68.00;;;;;;5014471;28;20424;-76
2022/12/29 10:20:11;;;;;;;4.57;2.10;;;13.40;68.00;;;;;;5005965;28;20473;-76
2022/12/29 10:23:14;;;;;;;4.27;2.40;;;13.50;68.00;;;;;;5013121;28;21089;-75
2022/12/29 10:25:43;;;;;;;4.37;1.73;;;13.50;67.90;;;;;;5020576;28;20455;-75
2022/12/29 10:28:24;;;;;;;4.83;2.33;;;13.60;67.70;;;;;;5014347;28;21020;-75
2022/12/29 10:30:52;;;;;;;5.50;2.30;;;13.60;67.90;;;;;;5014058;28;20425;-74
2022/12/29 10:33:32;;;;;;;2.70;1.97;;;13.60;67.90;;;;;;5008186;28;20465;-76
2022/12/29 10:35:58;;;;;;;4.43;2.27;;;13.70;67.90;;;;;;5003733;28;20561;-76
2022/12/29 10:39:04;;;;;;;4.43;2.20;;;13.70;67.70;;;;;;5026864;28;20472;-76
2022/12/29 10:41:53;;;;;;;6.40;2.43;;;13.80;67.90;;;;;;5031747;28;20413;-75
2022/12/29 10:44:20;;;;;;;4.50;1.77;;;13.90;67.70;;;;;;5036910;28;20476;-77
2022/12/29 10:46:55;;;;;;;6.60;2.67;;;13.90;67.70;;;;;;5031959;28;20498;-75
2022/12/29 10:49:21;;;;;;;5.10;1.97;;;14.00;67.50;;;;;;5026335;28;20943;-76
2022/12/29 10:51:48;;;;;;;3.53;1.97;;;14.10;67.00;;;;;;5023839;28;20424;-75
2022/12/29 10:54:19;;;;;;;4.10;2.50;;;14.20;66.90;;;;;;5024519;28;20535;-76
2022/12/29 10:57:01;;;;;;;3.57;2.47;;;14.40;66.90;;;;;;5023875;28;20796;-77
2022/12/29 10:59:30;;;;;;;5.20;2.00;;;14.60;66.10;;;;;;5029453;28;20487;-76
2022/12/29 11:02:39;;;;;;;5.73;2.07;;;14.80;65.40;;;;;;5026834;28;20421;-76
2022/12/29 11:05:18;;;;;;;4.33;2.33;;;15.00;64.80;;;;;;5016054;28;20454;-75
2022/12/29 11:07:47;;;;;;;7.13;2.33;;;15.10;64.50;;;;;;5030522;28;20439;-76
2022/12/29 11:10:36;;;;;;;4.60;2.50;;;14.90;64.50;;;;;;5030095;28;20428;-76
2022/12/29 11:13:10;;;;;;;4.40;1.93;;;14.70;65.00;;;;;;5025836;28;20458;-76
2022/12/29 11:15:41;;;;;;;3.43;1.83;;;14.70;65.40;;;;;;5028138;28;20411;-76
2022/12/29 11:18:18;;;;;;;3.47;2.00;;;14.60;65.40;;;;;;5019014;28;20617;-76
2022/12/29 11:20:44;;;;;;;3.07;1.87;;;14.50;65.70;;;;;;5020494;28;20499;-76
2022/12/29 11:23:32;;;;;;;2.60;1.70;;;14.50;66.30;;;;;;5024760;28;21006;-76
2022/12/29 11:26:09;;;;;;;4.40;2.30;;;14.30;66.90;;;;;;5019320;28;20675;-76
2022/12/29 11:28:37;;;;;;;2.57;1.73;;;14.20;66.90;;;;;;5021839;28;20425;-76
2022/12/29 11:31:04;;;;;;;3.80;1.80;;;14.20;67.00;;;;;;5019846;28;20561;-77
2022/12/29 11:33:31;;;;;;;5.30;2.20;;;14.10;67.20;;;;;;5021808;28;20457;-76
2022/12/29 11:36:01;;;;;;;4.67;1.73;;;14.20;67.00;;;;;;5021447;28;20576;-76
2022/12/29 11:38:36;;;;;;;3.37;1.80;;;14.10;67.20;;;;;;5028763;28;20474;-76
2022/12/29 11:41:03;;;;;;;3.53;1.70;;;14.10;67.50;;;;;;5027913;28;20903;-75
2022/12/29 11:43:36;;;;;;;4.20;2.00;;;14.00;68.60;;;;;;5025678;28;20828;-76
2022/12/29 11:46:03;;;;;;;4.30;2.07;;;13.90;69.40;;;;;;5028255;28;20420;-76
2022/12/29 11:48:37;;;;;;;4.70;1.90;;;13.70;70.50;;;;;;5029481;28;20466;-75
2022/12/29 11:51:03;;;;;;;3.83;2.07;;;13.50;72.00;;;;;;5030938;28;20439;-76
2022/12/29 11:53:31;;;;;;;4.50;1.93;;;13.20;73.20;;;;;;5026689;28;20460;-76
2022/12/29 11:56:10;;;;;;;4.33;2.20;;;13.10;73.60;;;;;;5026588;28;20447;-75
2022/12/29 11:58:38;;;;;;;3.20;2.00;;;13.10;72.90;;;;;;5022756;28;20484;-77
2022/12/29 12:01:25;;;;;;;3.93;2.00;;;13.10;72.70;;;;;;5026028;28;20419;-76
2022/12/29 12:04:16;;;;;;;6.30;2.50;;;13.10;72.70;;;;;;5025673;28;20444;-77
2022/12/29 12:06:49;;;;;;;7.10;2.27;;;13.20;73.20;;;;;;5026875;28;20518;-76
2022/12/29 12:09:40;;;;;;;3.87;2.20;;;13.10;73.20;;;;;;5026578;28;20474;-76
2022/12/29 12:12:15;;;;;;;2.80;1.87;;;13.20;73.50;;;;;;5025481;28;20567;-77
2022/12/29 12:14:50;;;;;;;2.90;2.17;;;13.10;73.20;;;;;;5021697;28;20970;-77
2022/12/29 12:17:29;;;;;;;3.23;2.17;;;13.20;73.30;;;;;;5023195;28;20430;-76
2022/12/29 12:20:02;;;;;;;4.13;2.40;;;13.30;73.30;;;;;;5027381;28;20478;-76
2022/12/29 12:22:42;;;;;;;3.10;1.90;;;13.30;72.00;;;;;;5028734;28;20557;-75
2022/12/29 12:25:23;;;;;;;3.63;2.00;;;13.30;71.70;;;;;;5029244;28;20419;-76
2022/12/29 12:28:10;;;;;;;1.73;1.50;;;13.30;71.80;;;;;;5022010;28;20440;-77
2022/12/29 12:30:44;;;;;;;3.67;1.93;;;13.30;71.60;;;;;;5026515;28;20498;-77
2022/12/29 12:33:27;;;;;;;3.13;1.93;;;13.30;71.40;;;;;;5020487;28;20870;-76
2022/12/29 12:36:05;;;;;;;2.70;1.80;;;13.40;71.60;;;;;;5024411;28;20970;-76
2022/12/29 12:38:53;;;;;;;2.50;1.70;;;13.40;71.30;;;;;;5029909;28;20460;-76
2022/12/29 12:41:39;;;;;;;5.40;1.93;;;13.40;71.60;;;;;;5037075;28;20510;-75
2022/12/29 12:44:13;;;;;;;3.10;1.90;;;13.40;72.10;;;;;;5026755;28;20475;-75
2022/12/29 12:46:50;;;;;;;3.20;1.90;;;13.20;73.90;;;;;;5030823;28;20469;-75
2022/12/29 12:49:42;;;;;;;4.37;2.13;;;13.00;74.30;;;;;;5030865;28;20442;-77
2022/12/29 12:52:23;;;;;;;3.97;2.30;;;12.90;74.60;;;;;;5028032;28;20479;-77
2022/12/29 12:54:59;;;;;;;3.80;2.57;;;12.90;75.10;;;;;;5027871;28;20478;-75
2022/12/29 12:57:50;;;;;;;4.33;2.10;;;12.90;74.80;;;;;;5021967;28;20440;-76
2022/12/29 13:00:19;;;;;;;3.70;2.30;;;12.90;74.80;;;;;;5023962;28;20478;-75
2022/12/29 13:03:07;;;;;;;6.07;1.80;;;13.00;74.60;;;;;;5025292;28;20408;-75
2022/12/29 13:06:04;;;;;;;3.47;2.07;;;13.00;74.50;;;;;;5029804;28;20424;-75
2022/12/29 13:09:05;;;;;;;4.80;2.20;;;13.20;74.20;;;;;;5031249;28;20441;-76
2022/12/29 13:11:53;;;;;;;3.70;2.20;;;13.30;74.00;;;;;;5027240;28;20408;-76
2022/12/29 13:14:41;;;;;;;4.30;2.00;;;13.40;73.90;;;;;;5029450;28;20464;-76
2022/12/29 13:17:32;;;;;;;2.90;2.07;;;13.40;73.60;;;;;;5024319;28;20528;-75
2022/12/29 13:20:37;;;;;;;5.33;1.83;;;13.30;74.00;;;;;;5028590;28;20496;-75
2022/12/29 13:23:12;;;;;;;3.90;2.00;;;13.30;73.70;;;;;;5020249;28;20455;-77
2022/12/29 13:25:43;;;;;;;5.63;2.40;;;13.40;73.50;;;;;;5026013;28;20403;-76
2022/12/29 13:28:21;;;;;;;3.20;2.03;;;13.40;73.30;;;;;;5025657;28;20446;-74
2022/12/29 13:31:15;;;;;;;3.90;2.13;;;13.40;73.30;;;;;;5027799;28;20411;-75
2022/12/29 13:34:10;;;;;;;4.33;2.33;;;13.30;73.50;;;;;;5020638;28;20477;-76
2022/12/29 13:36:46;;;;;;;2.43;1.80;;;13.30;73.60;;;;;;5026881;28;20717;-76
2022/12/29 13:39:20;;;;;;;2.97;1.80;;;13.30;73.70;;;;;;5023463;28;20504;-76
2022/12/29 13:41:50;;;;;;;6.30;2.20;;;13.10;74.00;;;;;;5026823;28;20412;-75
2022/12/29 13:44:24;;;;;;;4.33;2.03;;;13.10;74.20;;;;;;5027167;28;20540;-76